createdAt,value
2019-05-06T00:00:36.673Z,98912.59
2019-05-06T00:03:06.129Z,98911.20
2019-05-06T00:05:37.337Z,98908.91
2019-05-06T00:08:06.798Z,98912.45
2019-05-06T00:10:37.797Z,98912.45
2019-05-06T00:13:07.393Z,98911.41
2019-05-06T00:15:37.019Z,98914.17
2019-05-06T00:18:06.742Z,98913.09
2019-05-06T00:20:36.483Z,98917.36
2019-05-06T00:23:07.825Z,98912.20
2019-05-06T00:25:45.063Z,98919.39
2019-05-06T00:28:16.513Z,98921.77
2019-05-06T00:30:47.668Z,98927.20
2019-05-06T00:33:17.188Z,98923.73
2019-05-06T00:35:46.654Z,98925.42
2019-05-06T00:38:16.114Z,98926.66
2019-05-06T00:40:47.200Z,98925.04
2019-05-06T00:43:16.681Z,98931.35
2019-05-06T00:45:47.121Z,98930.17
2019-05-06T00:48:16.625Z,98930.56
2019-05-06T00:50:46.105Z,98930.89
2019-05-06T00:53:17.172Z,98933.87
2019-05-06T00:55:46.748Z,98935.54
2019-05-06T00:58:16.218Z,98934.52
2019-05-06T01:00:45.772Z,98941.19
2019-05-06T01:03:15.293Z,98937.19
2019-05-06T01:05:44.771Z,98933.45
2019-05-06T01:08:19.876Z,98935.83
2019-05-06T01:10:49.444Z,98933.88
2019-05-06T01:13:20.719Z,98937.28
2019-05-06T01:15:50.544Z,98935.95
2019-05-06T01:18:20.042Z,98934.69
2019-05-06T01:20:51.138Z,98937.47
2019-05-06T01:23:20.781Z,98936.67
2019-05-06T01:25:50.306Z,98941.31
2019-05-06T01:28:19.763Z,98929.19
2019-05-06T01:30:49.220Z,98935.81
2019-05-06T01:33:18.746Z,98929.23
2019-05-06T01:35:48.224Z,98931.58
2019-05-06T01:38:19.321Z,98935.31
2019-05-06T01:40:50.437Z,98932.26
2019-05-06T01:43:21.539Z,98941.46
2019-05-06T01:45:51.001Z,98942.16
2019-05-06T01:48:22.119Z,98939.48
2019-05-06T01:50:51.605Z,98934.20
2019-05-06T01:53:21.060Z,98949.84
2019-05-06T01:55:50.536Z,98951.13
2019-05-06T01:58:20.025Z,98949.39
2019-05-06T02:00:50.549Z,98949.43
2019-05-06T02:03:20.044Z,98953.83
2019-05-06T02:05:49.539Z,98951.63
2019-05-06T02:08:18.989Z,98953.88
2019-05-06T02:10:48.513Z,98955.51
2019-05-06T02:13:17.994Z,98955.17
2019-05-06T02:15:47.452Z,98956.75
2019-05-06T02:18:18.712Z,98959.91
2019-05-06T02:20:49.889Z,98960.95
2019-05-06T02:23:21.142Z,98953.49
2019-05-06T02:25:53.990Z,98957.28
2019-05-06T02:28:23.681Z,98961.80
2019-05-06T02:30:55.026Z,98960.56
2019-05-06T02:33:35.723Z,98965.14
2019-05-06T02:36:07.206Z,98966.01
2019-05-06T02:38:47.030Z,98970.25
2019-05-06T02:41:27.256Z,98967.80
2019-05-06T02:43:56.746Z,98960.98
2019-05-06T02:46:26.218Z,98965.86
2019-05-06T02:48:57.325Z,98963.23
2019-05-06T02:51:26.962Z,98960.78
2019-05-06T02:54:15.763Z,98965.03
2019-05-06T02:56:45.237Z,98959.98
2019-05-06T02:59:14.889Z,98960.40
2019-05-06T03:01:45.363Z,98960.81
2019-05-06T03:04:14.959Z,98962.79
2019-05-06T03:06:44.917Z,98968.21
2019-05-06T03:09:14.515Z,98964.19
2019-05-06T03:11:44.057Z,98968.83
2019-05-06T03:14:14.101Z,98964.80
2019-05-06T03:16:44.175Z,98967.11
2019-05-06T03:19:13.942Z,98965.20
2019-05-06T03:21:45.179Z,98965.45
2019-05-06T03:26:58.225Z,98968.19
2019-05-06T03:29:27.747Z,98962.03
2019-05-06T03:31:57.608Z,98961.34
2019-05-06T03:34:49.190Z,98968.88
2019-05-06T03:36:58.631Z,98966.63
2019-05-06T03:39:28.087Z,98964.34
2019-05-06T03:41:57.598Z,98969.15
2019-05-06T03:44:27.067Z,98965.43
2019-05-06T03:46:58.529Z,98965.03
2019-05-06T03:49:29.661Z,98968.33
2019-05-06T03:51:59.158Z,98972.35
2019-05-06T03:54:29.714Z,98977.11
2019-05-06T03:56:59.496Z,98977.09
2019-05-06T03:59:33.564Z,98980.33
2019-05-06T04:02:05.336Z,98980.33
2019-05-06T04:04:34.422Z,98983.52
2019-05-06T04:07:04.162Z,98981.81
2019-05-06T04:09:36.931Z,98989.72
2019-05-06T04:12:05.165Z,98988.09
2019-05-06T04:14:34.919Z,98992.52
2019-05-06T04:17:06.254Z,98994.77
2019-05-06T04:19:38.263Z,98967.53
2019-05-06T04:22:12.562Z,98995.19
2019-05-06T04:24:43.061Z,98996.16
2019-05-06T04:27:18.889Z,98997.04
2019-05-06T04:29:48.660Z,99002.16
2019-05-06T04:32:18.849Z,98998.06
2019-05-06T04:34:48.788Z,99005.36
2019-05-06T04:37:19.403Z,99010.35
2019-05-06T04:39:53.160Z,99016.65
2019-05-06T04:42:23.261Z,99017.02
2019-05-06T04:44:53.722Z,99018.87
2019-05-06T04:47:24.311Z,99016.95
2019-05-06T04:49:54.433Z,99017.66
2019-05-06T04:52:26.053Z,99021.09
2019-05-06T04:54:55.136Z,99025.33
2019-05-06T04:57:25.026Z,99022.75
2019-05-06T04:59:55.336Z,99029.77
2019-05-06T05:02:25.191Z,99033.87
2019-05-06T05:05:06.960Z,99030.14
2019-05-06T05:07:36.921Z,99035.32
2019-05-06T05:10:08.798Z,99042.43
2019-05-06T05:12:42.563Z,99042.17
2019-05-06T05:15:13.133Z,99047.95
2019-05-06T05:17:44.203Z,99045.64
2019-05-06T05:20:14.102Z,99050.50
2019-05-06T05:22:43.796Z,99053.41
2019-05-06T05:25:13.893Z,99049.53
2019-05-06T05:27:43.495Z,99053.99
2019-05-06T05:30:13.568Z,99051.58
2019-05-06T05:32:43.350Z,99051.52
2019-05-06T05:35:13.132Z,99053.58
2019-05-06T05:37:42.660Z,99055.41
2019-05-06T05:40:12.996Z,99058.30
2019-05-06T05:42:44.649Z,99058.11
2019-05-06T05:45:14.810Z,99063.67
2019-05-06T05:47:44.821Z,99058.92
2019-05-06T05:50:16.257Z,99059.25
2019-05-06T05:52:45.975Z,99056.00
2019-05-06T05:55:15.586Z,99054.09
2019-05-06T05:57:45.225Z,99052.31
2019-05-06T06:00:16.614Z,99052.81
2019-05-06T06:02:46.308Z,99052.09
2019-05-06T06:05:16.225Z,99052.99
2019-05-06T06:07:45.951Z,99054.80
2019-05-06T06:10:17.732Z,99046.60
2019-05-06T06:12:47.302Z,99048.63
2019-05-06T06:15:18.689Z,99048.44
2019-05-06T06:17:51.941Z,99048.30
2019-05-06T06:20:23.323Z,99048.44
2019-05-06T06:22:54.160Z,99050.03
2019-05-06T06:25:24.323Z,99046.55
2019-05-06T06:27:54.246Z,99046.59
2019-05-06T06:30:25.390Z,99047.68
2019-05-06T06:32:56.115Z,99039.36
2019-05-06T06:35:27.272Z,99037.99
2019-05-06T06:37:58.420Z,99043.47
2019-05-06T06:40:28.149Z,99038.70
2019-05-06T06:42:59.293Z,99039.58
2019-05-06T06:45:28.837Z,99044.56
2019-05-06T06:47:58.362Z,99045.11
2019-05-06T06:50:38.641Z,99046.92
2019-05-06T06:53:08.097Z,99041.21
2019-05-06T06:55:39.249Z,99032.36
2019-05-06T06:58:12.015Z,99038.34
2019-05-06T07:00:43.158Z,99038.95
2019-05-06T07:03:14.323Z,99040.25
2019-05-06T07:05:46.376Z,99028.88
2019-05-06T07:08:15.842Z,99025.99
2019-05-06T07:10:45.691Z,99026.45
2019-05-06T07:13:16.999Z,99017.09
2019-05-06T07:15:46.798Z,99010.16
2019-05-06T07:18:16.499Z,99000.88
2019-05-06T07:20:47.838Z,99004.36
2019-05-06T07:23:18.978Z,98999.05
2019-05-06T07:25:48.567Z,98983.27
2019-05-06T07:28:18.157Z,98983.22
2019-05-06T07:30:47.653Z,98976.95
2019-05-06T07:33:17.209Z,98975.11
2019-05-06T07:35:46.793Z,98965.15
2019-05-06T07:38:16.347Z,98995.53
2019-05-06T07:40:53.501Z,98994.86
2019-05-06T07:43:24.667Z,99008.27
2019-05-06T07:45:55.773Z,99015.76
2019-05-06T07:48:25.252Z,99021.48
2019-05-06T07:50:54.973Z,99009.89
2019-05-06T07:53:24.508Z,99007.08
2019-05-06T07:55:54.028Z,98996.28
2019-05-06T07:58:23.501Z,98983.34
2019-05-06T08:00:53.007Z,98992.91
2019-05-06T08:03:22.590Z,98993.80
2019-05-06T08:05:58.250Z,98995.48
2019-05-06T08:08:23.279Z,98989.11
2019-05-06T08:10:52.820Z,98971.89
2019-05-06T08:13:22.682Z,98977.09
2019-05-06T08:15:53.029Z,98988.94
2019-05-06T08:18:23.475Z,98976.95
2019-05-06T08:20:57.806Z,98973.18
2019-05-06T08:23:28.956Z,98977.16
2019-05-06T08:26:10.018Z,98999.34
2019-05-06T08:28:38.596Z,99006.12
2019-05-06T08:31:02.380Z,99010.02
2019-05-06T08:33:32.738Z,99013.50
2019-05-06T08:36:11.700Z,99007.63
2019-05-06T08:38:36.882Z,99001.13
2019-05-06T08:41:06.526Z,98993.88
2019-05-06T08:43:35.994Z,98992.05
2019-05-06T08:46:05.498Z,98993.38
2019-05-06T08:48:35.021Z,99010.37
2019-05-06T08:51:09.005Z,99016.70
2019-05-06T08:53:39.007Z,99016.10
2019-05-06T08:56:12.584Z,99011.46
2019-05-06T08:58:43.327Z,99015.83
2019-05-06T09:01:15.044Z,99021.81
2019-05-06T09:03:44.968Z,99016.15
2019-05-06T09:06:26.481Z,99011.61
2019-05-06T09:09:07.547Z,99012.86
2019-05-06T09:11:37.249Z,99006.06
2019-05-06T09:14:09.821Z,99001.90
2019-05-06T09:16:38.917Z,99001.92
2019-05-06T09:19:27.719Z,98997.00
2019-05-06T09:21:57.273Z,98996.22
2019-05-06T09:24:26.739Z,98994.80
2019-05-06T09:26:57.933Z,99000.91
2019-05-06T09:29:29.058Z,98997.05
2019-05-06T09:32:01.814Z,98999.36
2019-05-06T09:34:32.999Z,98998.02
2019-05-06T09:37:07.814Z,98998.44
2019-05-06T09:39:37.327Z,98999.12
2019-05-06T09:42:06.948Z,98996.66
2019-05-06T09:44:36.408Z,98998.42
2019-05-06T09:47:07.828Z,98996.69
2019-05-06T09:49:38.984Z,98991.61
2019-05-06T09:52:08.485Z,98984.30
2019-05-06T09:54:39.779Z,98987.43
2019-05-06T09:57:12.891Z,98988.66
2019-05-06T09:59:42.267Z,98983.89
2019-05-06T10:02:12.541Z,98982.14
2019-05-06T10:04:42.919Z,98979.77
2019-05-06T10:07:12.778Z,98977.05
2019-05-06T10:09:43.409Z,98982.57
2019-05-06T10:12:13.394Z,98987.50
2019-05-06T10:14:43.529Z,98977.69
2019-05-06T10:17:13.411Z,98968.02
2019-05-06T10:19:43.181Z,98959.35
2019-05-06T10:22:12.933Z,98949.94
2019-05-06T10:24:43.109Z,98949.00
2019-05-06T10:27:13.170Z,98959.55
2019-05-06T10:29:44.311Z,98950.06
2019-05-06T10:32:22.433Z,98962.68
2019-05-06T10:34:52.627Z,98970.55
2019-05-06T10:37:27.893Z,98978.33
2019-05-06T10:40:04.875Z,98983.33
2019-05-06T10:42:38.954Z,98978.09
2019-05-06T10:45:13.123Z,98979.66
2019-05-06T10:47:42.623Z,98975.13
2019-05-06T10:50:12.748Z,98976.29
2019-05-06T10:52:43.834Z,98972.49
2019-05-06T10:55:13.483Z,98967.38
2019-05-06T10:57:44.714Z,98955.28
2019-05-06T11:00:14.745Z,98931.57
2019-05-06T11:02:45.895Z,98944.56
2019-05-06T11:05:16.839Z,98945.55
2019-05-06T11:07:46.384Z,98942.99
2019-05-06T11:10:24.443Z,98936.87
2019-05-06T11:12:47.702Z,98937.70
2019-05-06T11:15:23.518Z,98930.42
2019-05-06T11:17:52.945Z,98927.86
2019-05-06T11:20:24.150Z,98925.81
2019-05-06T11:22:54.081Z,98931.78
2019-05-06T11:25:23.713Z,98933.34
2019-05-06T11:27:53.394Z,98933.36
2019-05-06T11:30:24.800Z,98924.12
2019-05-06T11:32:56.093Z,98922.83
2019-05-06T11:35:27.343Z,98915.57
2019-05-06T11:37:59.462Z,98909.48
2019-05-06T11:40:28.987Z,98918.84
2019-05-06T11:42:58.535Z,98911.80
2019-05-06T11:45:28.049Z,98919.96
2019-05-06T11:47:57.523Z,98921.86
2019-05-06T11:50:27.170Z,98917.05
2019-05-06T11:52:57.350Z,98920.43
2019-05-06T11:55:31.227Z,98922.34
2019-05-06T11:57:58.084Z,98914.94
2019-05-06T12:00:29.430Z,98924.79
2019-05-06T12:02:58.927Z,98922.30
2019-05-06T12:05:28.706Z,98917.23
2019-05-06T12:08:07.237Z,98927.27
2019-05-06T12:10:29.500Z,98922.17
2019-05-06T12:12:59.023Z,98921.66
2019-05-06T12:15:28.562Z,98923.75
2019-05-06T12:17:58.040Z,98912.47
2019-05-06T12:20:27.533Z,98911.08
2019-05-06T12:22:57.026Z,98913.05
2019-05-06T12:25:26.570Z,98920.34
2019-05-06T12:27:56.097Z,98902.22
2019-05-06T12:30:28.222Z,98806.54
2019-05-06T12:32:59.359Z,98883.89
2019-05-06T12:35:28.850Z,98890.03
2019-05-06T12:38:05.167Z,98890.81
2019-05-06T12:40:32.055Z,98887.86
2019-05-06T12:43:04.114Z,98882.65
2019-05-06T12:45:35.519Z,98885.83
2019-05-06T12:48:06.727Z,98879.32
2019-05-06T12:50:36.759Z,98877.25
2019-05-06T12:53:06.222Z,98879.30
2019-05-06T12:55:36.096Z,98872.32
2019-05-06T12:58:05.618Z,98855.50
2019-05-06T13:00:35.114Z,98860.05
2019-05-06T13:03:04.711Z,98860.50
2019-05-06T13:05:34.406Z,98868.23
2019-05-06T13:08:05.938Z,98862.84
2019-05-06T13:10:54.528Z,98867.13
2019-05-06T13:13:24.300Z,98874.37
2019-05-06T13:15:53.825Z,98871.02
2019-05-06T13:18:23.400Z,98873.12
2019-05-06T13:20:53.439Z,98871.31
2019-05-06T13:23:26.968Z,98868.94
2019-05-06T13:25:56.495Z,98868.52
2019-05-06T13:28:30.433Z,98867.67
2019-05-06T13:31:13.374Z,98866.41
2019-05-06T13:36:07.903Z,98862.14
2019-05-06T13:38:37.391Z,98863.61
2019-05-06T13:41:06.865Z,98865.13
2019-05-06T13:43:37.986Z,98880.27
2019-05-06T13:46:09.305Z,98876.25
2019-05-06T13:48:42.648Z,98868.33
2019-05-06T13:51:13.659Z,98864.31
2019-05-06T13:54:02.751Z,98858.55
2019-05-06T13:56:33.341Z,98862.03
2019-05-06T13:59:05.084Z,98864.05
2019-05-06T14:01:35.891Z,98864.70
2019-05-06T14:04:05.471Z,98857.06
2019-05-06T14:06:35.326Z,98852.90
2019-05-06T14:09:08.334Z,98856.20
2019-05-06T14:11:38.249Z,98852.88
2019-05-06T14:14:08.176Z,98860.91
2019-05-06T14:16:37.675Z,98866.73
2019-05-06T14:19:07.218Z,98853.98
2019-05-06T14:21:36.689Z,98861.30
2019-05-06T14:24:06.189Z,98856.05
2019-05-06T14:26:37.270Z,98857.19
2019-05-06T14:29:08.554Z,98857.85
2019-05-06T14:31:39.663Z,98857.29
2019-05-06T14:34:09.134Z,98861.44
2019-05-06T14:36:38.645Z,98859.81
2019-05-06T14:39:09.888Z,98858.27
2019-05-06T14:41:44.580Z,98861.14
2019-05-06T14:44:12.306Z,98863.22
2019-05-06T14:46:43.382Z,98846.59
2019-05-06T14:49:15.514Z,98864.47
2019-05-06T14:51:53.526Z,98868.50
2019-05-06T14:54:22.707Z,98870.65
2019-05-06T14:56:53.783Z,98869.31
2019-05-06T14:59:23.602Z,98869.53
2019-05-06T15:01:53.907Z,98877.25
2019-05-06T15:04:23.525Z,98874.61
2019-05-06T15:06:53.184Z,98872.83
2019-05-06T15:09:24.438Z,98868.20
2019-05-06T15:11:53.899Z,98876.11
2019-05-06T15:14:23.406Z,98869.69
2019-05-06T15:16:53.145Z,98867.39
2019-05-06T15:19:22.879Z,98875.27
2019-05-06T15:21:53.083Z,98875.95
2019-05-06T15:24:24.418Z,98874.95
2019-05-06T15:27:13.353Z,98874.77
2019-05-06T15:29:44.434Z,98876.73
2019-05-06T15:32:15.664Z,98875.69
2019-05-06T15:34:46.782Z,98876.05
2019-05-06T15:37:17.906Z,98869.52
2019-05-06T15:39:47.408Z,98871.66
2019-05-06T15:42:17.040Z,98871.33
2019-05-06T15:44:46.546Z,98872.80
2019-05-06T15:47:16.015Z,98878.95
2019-05-06T15:49:45.494Z,98874.48
2019-05-06T15:52:15.066Z,98881.74
2019-05-06T15:54:44.589Z,98877.85
2019-05-06T15:57:14.088Z,98880.66
2019-05-06T15:59:44.457Z,98881.88
2019-05-06T16:02:14.107Z,98878.73
2019-05-06T16:04:43.598Z,98878.43
2019-05-06T16:07:13.156Z,98881.64
2019-05-06T16:09:43.044Z,98879.79
2019-05-06T16:12:12.918Z,98880.34
2019-05-06T16:14:42.618Z,98880.90
2019-05-06T16:17:12.739Z,98873.92
2019-05-06T16:19:43.508Z,98881.22
2019-05-06T16:22:13.012Z,98882.27
2019-05-06T16:24:44.137Z,98880.65
2019-05-06T16:27:13.632Z,98884.31
2019-05-06T16:29:43.163Z,98882.34
2019-05-06T16:32:12.719Z,98880.87
2019-05-06T16:34:43.100Z,98885.39
2019-05-06T16:37:12.805Z,98883.23
2019-05-06T16:39:42.518Z,98877.68
2019-05-06T16:42:12.880Z,98877.86
2019-05-06T16:44:45.091Z,98876.91
2019-05-06T16:47:15.743Z,98873.80
2019-05-06T16:49:45.200Z,98872.56
2019-05-06T16:52:14.723Z,98876.17
2019-05-06T16:54:44.205Z,98867.52
2019-05-06T16:57:15.287Z,98867.68
2019-05-06T16:59:44.827Z,98868.94
2019-05-06T17:02:15.886Z,98869.97
2019-05-06T17:04:47.012Z,98872.05
2019-05-06T17:07:16.958Z,98869.86
2019-05-06T17:09:46.427Z,98872.25
2019-05-06T17:12:15.945Z,98875.38
2019-05-06T17:14:45.441Z,98880.73
2019-05-06T17:17:15.007Z,98880.33
2019-05-06T17:19:44.462Z,98887.16
2019-05-06T17:22:13.952Z,98887.45
2019-05-06T17:24:43.462Z,98884.60
2019-05-06T17:27:13.023Z,98892.92
2019-05-06T17:29:44.174Z,98895.37
2019-05-06T17:32:15.334Z,98900.48
2019-05-06T17:34:46.446Z,98896.52
2019-05-06T17:37:17.570Z,98894.02
2019-05-06T17:39:47.061Z,98901.91
2019-05-06T17:42:16.555Z,98902.09
2019-05-06T17:44:46.073Z,98903.84
2019-05-06T17:47:23.290Z,98897.45
2019-05-06T17:49:53.011Z,98903.74
2019-05-06T17:52:24.197Z,98906.86
2019-05-06T17:54:53.678Z,98908.87
2019-05-06T17:57:23.186Z,98908.58
2019-05-06T17:59:52.955Z,98908.00
2019-05-06T18:02:24.109Z,98912.09
2019-05-06T18:04:53.669Z,98908.47
2019-05-06T18:07:23.252Z,98912.70
2019-05-06T18:09:52.891Z,98914.30
2019-05-06T18:12:23.315Z,98911.58
2019-05-06T18:14:53.522Z,98918.01
2019-05-06T18:17:23.154Z,98916.97
2019-05-06T18:19:52.670Z,98920.93
2019-05-06T18:22:22.714Z,98922.83
2019-05-06T18:24:52.615Z,98923.01
2019-05-06T18:27:22.691Z,98924.44
2019-05-06T18:29:53.250Z,98925.19
2019-05-06T18:32:23.474Z,98930.91
2019-05-06T18:34:53.088Z,98933.17
2019-05-06T18:37:23.343Z,98931.63
2019-05-06T18:39:53.182Z,98929.10
2019-05-06T18:42:43.033Z,98928.73
2019-05-06T18:45:13.785Z,98929.14
2019-05-06T18:47:43.265Z,98931.81
2019-05-06T18:50:13.498Z,98930.15
2019-05-06T18:52:43.173Z,98931.10
2019-05-06T18:55:13.262Z,98935.32
2019-05-06T18:57:42.743Z,98937.17
2019-05-06T19:00:13.419Z,98937.23
2019-05-06T19:02:42.874Z,98938.03
2019-05-06T19:05:14.472Z,98941.00
2019-05-06T19:07:46.582Z,98942.30
2019-05-06T19:10:17.471Z,98942.23
2019-05-06T19:12:46.985Z,98941.99
2019-05-06T19:15:16.677Z,98949.17
2019-05-06T19:17:46.180Z,98949.33
2019-05-06T19:20:16.196Z,98950.42
2019-05-06T19:22:45.676Z,98954.82
2019-05-06T19:25:15.848Z,98959.86
2019-05-06T19:27:45.533Z,98954.68
2019-05-06T19:30:16.016Z,98957.61
2019-05-06T19:32:45.871Z,98965.24
2019-05-06T19:35:15.689Z,98965.74
2019-05-06T19:37:45.215Z,98963.00
2019-05-06T19:40:15.207Z,98970.45
2019-05-06T19:42:50.291Z,98965.31
2019-05-06T19:45:22.228Z,98966.61
2019-05-06T19:47:52.178Z,98971.73
2019-05-06T19:50:25.727Z,98973.44
2019-05-06T19:52:52.927Z,98977.17
2019-05-06T19:55:23.164Z,98978.42
2019-05-06T19:57:52.770Z,98975.56
2019-05-06T20:00:22.908Z,98978.36
2019-05-06T20:02:52.802Z,98981.75
2019-05-06T20:05:24.290Z,98981.27
2019-05-06T20:07:55.385Z,98980.02
2019-05-06T20:10:26.550Z,98981.53
2019-05-06T20:13:01.954Z,98985.58
2019-05-06T20:15:30.480Z,98986.75
2019-05-06T20:17:59.956Z,98982.08
2019-05-06T20:20:32.639Z,98983.58
2019-05-06T20:23:02.705Z,98978.98
2019-05-06T20:25:32.071Z,98980.75
2019-05-06T20:28:02.394Z,98984.40
2019-05-06T20:30:32.739Z,98983.66
2019-05-06T20:33:02.419Z,98992.11
2019-05-06T20:35:32.951Z,98984.34
2019-05-06T20:38:02.886Z,98982.31
2019-05-06T20:40:33.039Z,98982.78
2019-05-06T20:43:16.667Z,98979.23
2019-05-06T20:45:35.475Z,98979.83
2019-05-06T20:48:05.432Z,98978.25
2019-05-06T20:50:34.916Z,98975.04
2019-05-06T20:53:04.341Z,98971.45
2019-05-06T20:55:35.708Z,98975.20
2019-05-06T20:58:05.499Z,98974.75
2019-05-06T21:00:34.978Z,98976.49
2019-05-06T21:03:04.794Z,98977.19
2019-05-06T21:05:34.299Z,98978.02
2019-05-06T21:08:03.804Z,98979.33
2019-05-06T21:10:33.327Z,98983.73
2019-05-06T21:13:02.808Z,98981.96
2019-05-06T21:15:32.638Z,98982.80
2019-05-06T21:18:04.405Z,98970.63
2019-05-06T21:20:33.380Z,98976.95
2019-05-06T21:23:02.864Z,98976.20
2019-05-06T21:25:32.750Z,98976.99
2019-05-06T21:28:03.032Z,98975.55
2019-05-06T21:30:33.273Z,98970.95
2019-05-06T21:33:02.748Z,98970.52
2019-05-06T21:35:33.129Z,98969.73
2019-05-06T21:38:02.826Z,98968.16
2019-05-06T21:40:32.877Z,98968.66
2019-05-06T21:43:02.448Z,98964.48
2019-05-06T21:45:33.129Z,98967.20
2019-05-06T21:48:03.363Z,98962.70
2019-05-06T21:50:33.244Z,98961.52
2019-05-06T21:53:03.642Z,98964.33
2019-05-06T21:55:33.127Z,98964.28
2019-05-06T21:58:02.632Z,98970.64
2019-05-06T22:00:34.201Z,98969.70
2019-05-06T22:03:03.994Z,98968.07
2019-05-06T22:05:33.503Z,98970.96
2019-05-06T22:08:23.745Z,98966.91
2019-05-06T22:10:54.457Z,98967.23
2019-05-06T22:13:23.950Z,98968.98
2019-05-06T22:15:53.533Z,98965.80
2019-05-06T22:18:23.101Z,98966.40
2019-05-06T22:20:54.265Z,98964.37
2019-05-06T22:23:23.909Z,98968.02
2019-05-06T22:25:53.380Z,98960.63
2019-05-06T22:28:25.832Z,98968.73
2019-05-06T22:30:55.297Z,98968.49
2019-05-06T22:33:24.848Z,98966.44
2019-05-06T22:35:54.911Z,98965.47
2019-05-06T22:38:24.554Z,98967.61
2019-05-06T22:40:54.055Z,98966.91
2019-05-06T22:43:23.515Z,98963.08
2019-05-06T22:45:58.965Z,98876.91
2019-05-06T22:48:28.407Z,98960.30
2019-05-06T22:50:57.885Z,98959.38
2019-05-06T22:53:27.426Z,98965.23
2019-05-06T22:55:58.522Z,98966.27
2019-05-06T22:58:27.964Z,98962.14
2019-05-06T23:00:58.280Z,98955.45
2019-05-06T23:03:29.357Z,98957.23
2019-05-06T23:05:58.838Z,98958.34
2019-05-06T23:08:28.358Z,98954.52
2019-05-06T23:10:57.918Z,98954.51
2019-05-06T23:13:27.395Z,98953.72
2019-05-06T23:15:56.888Z,98953.03
2019-05-06T23:18:26.380Z,98954.08
2019-05-06T23:20:55.834Z,98956.79
2019-05-06T23:23:25.337Z,98956.50
2019-05-06T23:26:02.913Z,98848.28
2019-05-06T23:28:32.396Z,98951.52
2019-05-06T23:31:01.990Z,98949.53
2019-05-06T23:33:32.314Z,98951.34
2019-05-06T23:36:02.654Z,98949.11
2019-05-06T23:38:36.795Z,98959.05
2019-05-06T23:41:14.512Z,98957.96
2019-05-06T23:43:48.501Z,98955.38
2019-05-06T23:46:23.005Z,98953.99
2019-05-06T23:48:57.016Z,98950.50
2019-05-06T23:51:33.021Z,98952.27
2019-05-06T23:54:06.753Z,98947.16
2019-05-06T23:56:43.372Z,98945.33
2019-05-06T23:59:16.968Z,98936.93
